sensor_id;sensor_type;location;lat;lon;timestamp;P1;P2;P0
73623;PMS5003;61921;53.226;-1.296;2023-07-31T00:01:35;2;2;
73623;PMS5003;61921;53.226;-1.296;2023-07-31T00:04:00;7;6;
73623;PMS5003;61921;53.226;-1.296;2023-07-31T00:06:25;5;5;
73623;PMS5003;61921;53.226;-1.296;2023-07-31T00:08:50;4;4;
73623;PMS5003;61921;53.226;-1.296;2023-07-31T00:11:15;5;5;
73623;PMS5003;61921;53.226;-1.296;2023-07-31T00:13:40;8;7;
73623;PMS5003;61921;53.226;-1.296;2023-07-31T00:16:06;3;3;
73623;PMS5003;61921;53.226;-1.296;2023-07-31T00:18:31;9;8;
73623;PMS5003;61921;53.226;-1.296;2023-07-31T00:20:56;4;4;
73623;PMS5003;61921;53.226;-1.296;2023-07-31T00:23:21;5;5;
73623;PMS5003;61921;53.226;-1.296;2023-07-31T00:25:46;5;4;
73623;PMS5003;61921;53.226;-1.296;2023-07-31T00:28:12;5;5;
73623;PMS5003;61921;53.226;-1.296;2023-07-31T00:30:37;5;5;
73623;PMS5003;61921;53.226;-1.296;2023-07-31T00:33:02;5;5;
73623;PMS5003;61921;53.226;-1.296;2023-07-31T00:35:27;4;4;
73623;PMS5003;61921;53.226;-1.296;2023-07-31T00:37:52;4;4;
73623;PMS5003;61921;53.226;-1.296;2023-07-31T00:40:18;5;5;
73623;PMS5003;61921;53.226;-1.296;2023-07-31T00:42:43;6;5;
73623;PMS5003;61921;53.226;-1.296;2023-07-31T00:45:08;5;5;
73623;PMS5003;61921;53.226;-1.296;2023-07-31T00:47:33;4;4;
73623;PMS5003;61921;53.226;-1.296;2023-07-31T00:49:59;2;2;
73623;PMS5003;61921;53.226;-1.296;2023-07-31T00:52:23;3;3;
73623;PMS5003;61921;53.226;-1.296;2023-07-31T00:54:49;4;4;
73623;PMS5003;61921;53.226;-1.296;2023-07-31T00:57:14;6;2;
73623;PMS5003;61921;53.226;-1.296;2023-07-31T00:59:39;3;3;
73623;PMS5003;61921;53.226;-1.296;2023-07-31T01:02:04;3;3;
73623;PMS5003;61921;53.226;-1.296;2023-07-31T01:04:29;2;2;
73623;PMS5003;61921;53.226;-1.296;2023-07-31T01:06:56;3;3;
73623;PMS5003;61921;53.226;-1.296;2023-07-31T01:09:22;4;3;
73623;PMS5003;61921;53.226;-1.296;2023-07-31T01:11:46;3;3;
73623;PMS5003;61921;53.226;-1.296;2023-07-31T01:14:10;4;4;
73623;PMS5003;61921;53.226;-1.296;2023-07-31T01:16:35;2;2;
73623;PMS5003;61921;53.226;-1.296;2023-07-31T01:19:00;2;2;
73623;PMS5003;61921;53.226;-1.296;2023-07-31T01:21:32;3;1;
73623;PMS5003;61921;53.226;-1.296;2023-07-31T01:26:17;2;2;
73623;PMS5003;61921;53.226;-1.296;2023-07-31T01:28:44;3;3;
73623;PMS5003;61921;53.226;-1.296;2023-07-31T01:31:07;0;0;
73623;PMS5003;61921;53.226;-1.296;2023-07-31T01:33:31;1;1;
73623;PMS5003;61921;53.226;-1.296;2023-07-31T01:35:57;4;2;
73623;PMS5003;61921;53.226;-1.296;2023-07-31T01:38:22;4;3;
73623;PMS5003;61921;53.226;-1.296;2023-07-31T01:40:50;3;3;
73623;PMS5003;61921;53.226;-1.296;2023-07-31T01:43:12;1;1;
73623;PMS5003;61921;53.226;-1.296;2023-07-31T01:45:38;1;1;
73623;PMS5003;61921;53.226;-1.296;2023-07-31T01:48:03;1;1;
73623;PMS5003;61921;53.226;-1.296;2023-07-31T01:50:28;1;1;
73623;PMS5003;61921;53.226;-1.296;2023-07-31T01:52:53;1;1;
73623;PMS5003;61921;53.226;-1.296;2023-07-31T01:55:19;3;2;
73623;PMS5003;61921;53.226;-1.296;2023-07-31T01:57:44;1;1;
73623;PMS5003;61921;53.226;-1.296;2023-07-31T02:00:09;2;2;
73623;PMS5003;61921;53.226;-1.296;2023-07-31T02:02:34;0;0;
73623;PMS5003;61921;53.226;-1.296;2023-07-31T02:04:59;0;0;
73623;PMS5003;61921;53.226;-1.296;2023-07-31T02:07:24;1;1;
73623;PMS5003;61921;53.226;-1.296;2023-07-31T02:09:50;0;0;
73623;PMS5003;61921;53.226;-1.296;2023-07-31T02:12:15;1;0;
73623;PMS5003;61921;53.226;-1.296;2023-07-31T02:14:40;4;1;
73623;PMS5003;61921;53.226;-1.296;2023-07-31T02:17:05;1;1;
73623;PMS5003;61921;53.226;-1.296;2023-07-31T02:19:30;1;1;
73623;PMS5003;61921;53.226;-1.296;2023-07-31T02:21:56;2;2;
73623;PMS5003;61921;53.226;-1.296;2023-07-31T02:24:20;1;1;
73623;PMS5003;61921;53.226;-1.296;2023-07-31T02:26:46;0;0;
73623;PMS5003;61921;53.226;-1.296;2023-07-31T02:29:11;1;1;
73623;PMS5003;61921;53.226;-1.296;2023-07-31T02:31:36;1;1;
73623;PMS5003;61921;53.226;-1.296;2023-07-31T02:34:01;1;1;
73623;PMS5003;61921;53.226;-1.296;2023-07-31T02:36:26;0;0;
73623;PMS5003;61921;53.226;-1.296;2023-07-31T02:38:51;1;1;
73623;PMS5003;61921;53.226;-1.296;2023-07-31T02:41:16;1;1;
73623;PMS5003;61921;53.226;-1.296;2023-07-31T02:43:42;0;0;
73623;PMS5003;61921;53.226;-1.296;2023-07-31T02:46:07;0;0;
73623;PMS5003;61921;53.226;-1.296;2023-07-31T02:48:32;0;0;
73623;PMS5003;61921;53.226;-1.296;2023-07-31T02:50:57;0;0;
73623;PMS5003;61921;53.226;-1.296;2023-07-31T02:53:22;1;0;
73623;PMS5003;61921;53.226;-1.296;2023-07-31T02:55:47;0;0;
73623;PMS5003;61921;53.226;-1.296;2023-07-31T02:58:12;0;0;
73623;PMS5003;61921;53.226;-1.296;2023-07-31T03:00:42;0;0;
73623;PMS5003;61921;53.226;-1.296;2023-07-31T03:03:03;0;0;
73623;PMS5003;61921;53.226;-1.296;2023-07-31T03:05:28;1;0;
73623;PMS5003;61921;53.226;-1.296;2023-07-31T03:07:53;0;0;
73623;PMS5003;61921;53.226;-1.296;2023-07-31T03:10:18;1;1;
73623;PMS5003;61921;53.226;-1.296;2023-07-31T03:12:46;1;1;
73623;PMS5003;61921;53.226;-1.296;2023-07-31T03:15:09;0;0;
73623;PMS5003;61921;53.226;-1.296;2023-07-31T03:17:34;0;0;
73623;PMS5003;61921;53.226;-1.296;2023-07-31T03:19:59;0;0;
73623;PMS5003;61921;53.226;-1.296;2023-07-31T03:22:24;0;0;
73623;PMS5003;61921;53.226;-1.296;2023-07-31T03:24:49;3;2;
73623;PMS5003;61921;53.226;-1.296;2023-07-31T03:27:14;1;0;
73623;PMS5003;61921;53.226;-1.296;2023-07-31T03:29:39;0;0;
73623;PMS5003;61921;53.226;-1.296;2023-07-31T03:32:05;1;1;
73623;PMS5003;61921;53.226;-1.296;2023-07-31T03:34:30;1;1;
73623;PMS5003;61921;53.226;-1.296;2023-07-31T03:36:55;1;1;
73623;PMS5003;61921;53.226;-1.296;2023-07-31T03:39:20;1;1;
73623;PMS5003;61921;53.226;-1.296;2023-07-31T03:41:45;0;0;
73623;PMS5003;61921;53.226;-1.296;2023-07-31T03:44:10;1;1;
73623;PMS5003;61921;53.226;-1.296;2023-07-31T03:46:35;1;1;
73623;PMS5003;61921;53.226;-1.296;2023-07-31T03:49:00;0;0;
73623;PMS5003;61921;53.226;-1.296;2023-07-31T03:51:26;2;2;
73623;PMS5003;61921;53.226;-1.296;2023-07-31T03:53:51;1;1;
73623;PMS5003;61921;53.226;-1.296;2023-07-31T03:56:16;0;0;
73623;PMS5003;61921;53.226;-1.296;2023-07-31T03:58:41;1;1;
73623;PMS5003;61921;53.226;-1.296;2023-07-31T04:01:06;1;1;
73623;PMS5003;61921;53.226;-1.296;2023-07-31T04:03:31;1;1;
73623;PMS5003;61921;53.226;-1.296;2023-07-31T04:05:57;0;0;
73623;PMS5003;61921;53.226;-1.296;2023-07-31T04:08:22;1;1;
73623;PMS5003;61921;53.226;-1.296;2023-07-31T04:10:47;1;1;
73623;PMS5003;61921;53.226;-1.296;2023-07-31T04:13:12;1;1;
73623;PMS5003;61921;53.226;-1.296;2023-07-31T04:15:37;1;1;
73623;PMS5003;61921;53.226;-1.296;2023-07-31T04:18:02;1;1;
73623;PMS5003;61921;53.226;-1.296;2023-07-31T04:20:27;0;0;
73623;PMS5003;61921;53.226;-1.296;2023-07-31T04:22:52;0;0;
73623;PMS5003;61921;53.226;-1.296;2023-07-31T04:25:17;2;2;
73623;PMS5003;61921;53.226;-1.296;2023-07-31T04:27:43;1;1;
73623;PMS5003;61921;53.226;-1.296;2023-07-31T04:30:08;0;0;
73623;PMS5003;61921;53.226;-1.296;2023-07-31T04:32:33;0;0;
73623;PMS5003;61921;53.226;-1.296;2023-07-31T04:34:58;1;1;
73623;PMS5003;61921;53.226;-1.296;2023-07-31T04:37:23;2;1;
73623;PMS5003;61921;53.226;-1.296;2023-07-31T04:39:48;1;0;
73623;PMS5003;61921;53.226;-1.296;2023-07-31T04:42:13;2;2;
73623;PMS5003;61921;53.226;-1.296;2023-07-31T04:44:38;1;1;
73623;PMS5003;61921;53.226;-1.296;2023-07-31T04:47:03;0;0;
73623;PMS5003;61921;53.226;-1.296;2023-07-31T04:49:28;2;2;
73623;PMS5003;61921;53.226;-1.296;2023-07-31T04:51:53;3;3;
73623;PMS5003;61921;53.226;-1.296;2023-07-31T04:54:19;0;0;
73623;PMS5003;61921;53.226;-1.296;2023-07-31T04:56:44;2;2;
73623;PMS5003;61921;53.226;-1.296;2023-07-31T04:59:09;1;1;
73623;PMS5003;61921;53.226;-1.296;2023-07-31T05:01:34;2;2;
73623;PMS5003;61921;53.226;-1.296;2023-07-31T05:03:59;2;2;
73623;PMS5003;61921;53.226;-1.296;2023-07-31T05:06:24;1;1;
73623;PMS5003;61921;53.226;-1.296;2023-07-31T05:08:49;0;0;
73623;PMS5003;61921;53.226;-1.296;2023-07-31T05:11:14;1;1;
73623;PMS5003;61921;53.226;-1.296;2023-07-31T05:13:39;1;1;
73623;PMS5003;61921;53.226;-1.296;2023-07-31T05:16:05;2;2;
73623;PMS5003;61921;53.226;-1.296;2023-07-31T05:18:30;2;2;
73623;PMS5003;61921;53.226;-1.296;2023-07-31T05:20:55;1;1;
73623;PMS5003;61921;53.226;-1.296;2023-07-31T05:23:20;1;1;
73623;PMS5003;61921;53.226;-1.296;2023-07-31T05:25:45;4;2;
73623;PMS5003;61921;53.226;-1.296;2023-07-31T05:28:11;2;2;
73623;PMS5003;61921;53.226;-1.296;2023-07-31T05:30:35;2;2;
73623;PMS5003;61921;53.226;-1.296;2023-07-31T05:33:00;3;2;
73623;PMS5003;61921;53.226;-1.296;2023-07-31T05:35:26;4;3;
73623;PMS5003;61921;53.226;-1.296;2023-07-31T05:37:51;2;2;
73623;PMS5003;61921;53.226;-1.296;2023-07-31T05:40:16;4;3;
73623;PMS5003;61921;53.226;-1.296;2023-07-31T05:42:41;3;3;
73623;PMS5003;61921;53.226;-1.296;2023-07-31T05:45:06;2;2;
73623;PMS5003;61921;53.226;-1.296;2023-07-31T05:47:32;3;3;
73623;PMS5003;61921;53.226;-1.296;2023-07-31T05:49:56;4;3;
73623;PMS5003;61921;53.226;-1.296;2023-07-31T05:52:21;2;2;
73623;PMS5003;61921;53.226;-1.296;2023-07-31T05:54:46;3;3;
73623;PMS5003;61921;53.226;-1.296;2023-07-31T05:57:11;1;1;
73623;PMS5003;61921;53.226;-1.296;2023-07-31T05:59:37;4;4;
73623;PMS5003;61921;53.226;-1.296;2023-07-31T06:02:02;5;4;
73623;PMS5003;61921;53.226;-1.296;2023-07-31T06:04:27;4;3;
73623;PMS5003;61921;53.226;-1.296;2023-07-31T06:06:52;5;3;
73623;PMS5003;61921;53.226;-1.296;2023-07-31T06:09:17;4;4;
73623;PMS5003;61921;53.226;-1.296;2023-07-31T06:11:42;1;1;
73623;PMS5003;61921;53.226;-1.296;2023-07-31T06:14:07;3;3;
73623;PMS5003;61921;53.226;-1.296;2023-07-31T06:16:32;2;2;
73623;PMS5003;61921;53.226;-1.296;2023-07-31T06:18:57;3;3;
73623;PMS5003;61921;53.226;-1.296;2023-07-31T06:21:22;2;2;
73623;PMS5003;61921;53.226;-1.296;2023-07-31T06:23:48;6;4;
73623;PMS5003;61921;53.226;-1.296;2023-07-31T06:26:13;3;3;
73623;PMS5003;61921;53.226;-1.296;2023-07-31T06:28:38;7;5;
73623;PMS5003;61921;53.226;-1.296;2023-07-31T06:31:03;4;3;
73623;PMS5003;61921;53.226;-1.296;2023-07-31T06:33:28;4;4;
73623;PMS5003;61921;53.226;-1.296;2023-07-31T06:35:53;7;5;
73623;PMS5003;61921;53.226;-1.296;2023-07-31T06:38:19;7;3;
73623;PMS5003;61921;53.226;-1.296;2023-07-31T06:40:43;7;4;
73623;PMS5003;61921;53.226;-1.296;2023-07-31T06:43:08;6;6;
73623;PMS5003;61921;53.226;-1.296;2023-07-31T06:45:34;4;4;
73623;PMS5003;61921;53.226;-1.296;2023-07-31T06:47:59;4;4;
73623;PMS5003;61921;53.226;-1.296;2023-07-31T06:50:24;8;5;
73623;PMS5003;61921;53.226;-1.296;2023-07-31T06:52:49;8;6;
73623;PMS5003;61921;53.226;-1.296;2023-07-31T06:55:16;5;5;
73623;PMS5003;61921;53.226;-1.296;2023-07-31T06:57:39;5;4;
73623;PMS5003;61921;53.226;-1.296;2023-07-31T07:00:05;6;5;
73623;PMS5003;61921;53.226;-1.296;2023-07-31T07:02:29;6;6;
73623;PMS5003;61921;53.226;-1.296;2023-07-31T07:04:54;6;3;
73623;PMS5003;61921;53.226;-1.296;2023-07-31T07:07:19;5;4;
73623;PMS5003;61921;53.226;-1.296;2023-07-31T07:09:45;7;5;
73623;PMS5003;61921;53.226;-1.296;2023-07-31T07:12:10;7;7;
73623;PMS5003;61921;53.226;-1.296;2023-07-31T07:14:35;7;7;
73623;PMS5003;61921;53.226;-1.296;2023-07-31T07:17:00;6;6;
73623;PMS5003;61921;53.226;-1.296;2023-07-31T07:19:25;7;7;
73623;PMS5003;61921;53.226;-1.296;2023-07-31T07:21:50;10;8;
73623;PMS5003;61921;53.226;-1.296;2023-07-31T07:24:15;7;5;
73623;PMS5003;61921;53.226;-1.296;2023-07-31T07:26:40;8;6;
73623;PMS5003;61921;53.226;-1.296;2023-07-31T07:29:05;8;5;
73623;PMS5003;61921;53.226;-1.296;2023-07-31T07:31:31;7;6;
73623;PMS5003;61921;53.226;-1.296;2023-07-31T07:33:56;10;6;
73623;PMS5003;61921;53.226;-1.296;2023-07-31T07:36:21;8;5;
73623;PMS5003;61921;53.226;-1.296;2023-07-31T07:38:46;8;8;
73623;PMS5003;61921;53.226;-1.296;2023-07-31T07:41:11;8;8;
73623;PMS5003;61921;53.226;-1.296;2023-07-31T07:43:36;8;6;
73623;PMS5003;61921;53.226;-1.296;2023-07-31T07:46:01;7;5;
73623;PMS5003;61921;53.226;-1.296;2023-07-31T07:48:27;7;7;
73623;PMS5003;61921;53.226;-1.296;2023-07-31T07:50:51;7;5;
73623;PMS5003;61921;53.226;-1.296;2023-07-31T07:53:17;5;5;
73623;PMS5003;61921;53.226;-1.296;2023-07-31T07:55:42;12;9;
73623;PMS5003;61921;53.226;-1.296;2023-07-31T07:58:08;10;8;
73623;PMS5003;61921;53.226;-1.296;2023-07-31T08:00:32;9;9;
73623;PMS5003;61921;53.226;-1.296;2023-07-31T08:02:58;11;7;
73623;PMS5003;61921;53.226;-1.296;2023-07-31T08:05:23;9;9;
73623;PMS5003;61921;53.226;-1.296;2023-07-31T08:07:48;9;7;
73623;PMS5003;61921;53.226;-1.296;2023-07-31T08:10:14;8;8;
73623;PMS5003;61921;53.226;-1.296;2023-07-31T08:12:39;7;6;
73623;PMS5003;61921;53.226;-1.296;2023-07-31T08:15:04;8;7;
73623;PMS5003;61921;53.226;-1.296;2023-07-31T08:17:29;7;7;
73623;PMS5003;61921;53.226;-1.296;2023-07-31T08:19:54;9;7;
73623;PMS5003;61921;53.226;-1.296;2023-07-31T08:22:19;7;7;
73623;PMS5003;61921;53.226;-1.296;2023-07-31T08:24:44;9;6;
73623;PMS5003;61921;53.226;-1.296;2023-07-31T08:27:09;10;8;
73623;PMS5003;61921;53.226;-1.296;2023-07-31T08:29:35;8;8;
73623;PMS5003;61921;53.226;-1.296;2023-07-31T08:32:00;8;7;
73623;PMS5003;61921;53.226;-1.296;2023-07-31T08:34:26;7;7;
73623;PMS5003;61921;53.226;-1.296;2023-07-31T08:36:51;7;7;
73623;PMS5003;61921;53.226;-1.296;2023-07-31T08:39:16;8;7;
73623;PMS5003;61921;53.226;-1.296;2023-07-31T08:41:41;6;6;
73623;PMS5003;61921;53.226;-1.296;2023-07-31T08:44:06;8;7;
73623;PMS5003;61921;53.226;-1.296;2023-07-31T08:46:32;5;5;
73623;PMS5003;61921;53.226;-1.296;2023-07-31T08:48:57;9;7;
73623;PMS5003;61921;53.226;-1.296;2023-07-31T08:51:23;6;6;
73623;PMS5003;61921;53.226;-1.296;2023-07-31T08:53:48;5;5;
73623;PMS5003;61921;53.226;-1.296;2023-07-31T08:56:13;9;5;
73623;PMS5003;61921;53.226;-1.296;2023-07-31T08:58:38;8;6;
73623;PMS5003;61921;53.226;-1.296;2023-07-31T09:01:03;7;6;
73623;PMS5003;61921;53.226;-1.296;2023-07-31T09:03:28;6;5;
73623;PMS5003;61921;53.226;-1.296;2023-07-31T09:05:53;10;10;
73623;PMS5003;61921;53.226;-1.296;2023-07-31T09:08:20;6;6;
73623;PMS5003;61921;53.226;-1.296;2023-07-31T09:10:44;5;5;
73623;PMS5003;61921;53.226;-1.296;2023-07-31T09:13:09;5;5;
73623;PMS5003;61921;53.226;-1.296;2023-07-31T09:15:34;5;5;
73623;PMS5003;61921;53.226;-1.296;2023-07-31T09:18:00;11;9;
73623;PMS5003;61921;53.226;-1.296;2023-07-31T09:20:24;7;7;
73623;PMS5003;61921;53.226;-1.296;2023-07-31T09:22:50;5;5;
73623;PMS5003;61921;53.226;-1.296;2023-07-31T09:25:15;8;7;
73623;PMS5003;61921;53.226;-1.296;2023-07-31T09:30:05;5;5;
73623;PMS5003;61921;53.226;-1.296;2023-07-31T09:32:31;6;6;
73623;PMS5003;61921;53.226;-1.296;2023-07-31T09:34:55;5;5;
73623;PMS5003;61921;53.226;-1.296;2023-07-31T09:37:21;6;5;
73623;PMS5003;61921;53.226;-1.296;2023-07-31T09:39:46;7;7;
73623;PMS5003;61921;53.226;-1.296;2023-07-31T09:42:11;5;5;
73623;PMS5003;61921;53.226;-1.296;2023-07-31T09:44:38;3;3;
73623;PMS5003;61921;53.226;-1.296;2023-07-31T09:47:01;6;4;
73623;PMS5003;61921;53.226;-1.296;2023-07-31T09:49:26;8;7;
73623;PMS5003;61921;53.226;-1.296;2023-07-31T09:51:52;6;5;
73623;PMS5003;61921;53.226;-1.296;2023-07-31T09:54:17;5;4;
73623;PMS5003;61921;53.226;-1.296;2023-07-31T09:56:42;7;5;
73623;PMS5003;61921;53.226;-1.296;2023-07-31T09:59:07;5;5;
73623;PMS5003;61921;53.226;-1.296;2023-07-31T10:01:32;6;6;
73623;PMS5003;61921;53.226;-1.296;2023-07-31T10:03:58;8;8;
73623;PMS5003;61921;53.226;-1.296;2023-07-31T10:06:24;7;6;
73623;PMS5003;61921;53.226;-1.296;2023-07-31T10:08:48;7;6;
73623;PMS5003;61921;53.226;-1.296;2023-07-31T10:11:13;5;5;
73623;PMS5003;61921;53.226;-1.296;2023-07-31T10:13:38;6;5;
73623;PMS5003;61921;53.226;-1.296;2023-07-31T10:16:03;5;5;
73623;PMS5003;61921;53.226;-1.296;2023-07-31T10:18:28;5;4;
73623;PMS5003;61921;53.226;-1.296;2023-07-31T10:20:54;5;5;
73623;PMS5003;61921;53.226;-1.296;2023-07-31T10:23:19;5;4;
73623;PMS5003;61921;53.226;-1.296;2023-07-31T10:25:44;5;5;
73623;PMS5003;61921;53.226;-1.296;2023-07-31T10:28:09;7;6;
73623;PMS5003;61921;53.226;-1.296;2023-07-31T10:30:35;7;5;
73623;PMS5003;61921;53.226;-1.296;2023-07-31T10:33:00;6;6;
73623;PMS5003;61921;53.226;-1.296;2023-07-31T10:35:25;5;4;
73623;PMS5003;61921;53.226;-1.296;2023-07-31T10:37:50;5;2;
73623;PMS5003;61921;53.226;-1.296;2023-07-31T10:40:16;3;3;
73623;PMS5003;61921;53.226;-1.296;2023-07-31T10:42:45;6;5;
73623;PMS5003;61921;53.226;-1.296;2023-07-31T10:45:08;4;4;
73623;PMS5003;61921;53.226;-1.296;2023-07-31T10:52:22;6;6;
73623;PMS5003;61921;53.226;-1.296;2023-07-31T10:54:48;6;4;
73623;PMS5003;61921;53.226;-1.296;2023-07-31T10:57:20;6;4;
73623;PMS5003;61921;53.226;-1.296;2023-07-31T10:59:38;8;5;
73623;PMS5003;61921;53.226;-1.296;2023-07-31T11:02:03;5;4;
73623;PMS5003;61921;53.226;-1.296;2023-07-31T11:04:29;3;3;
73623;PMS5003;61921;53.226;-1.296;2023-07-31T11:06:57;3;3;
73623;PMS5003;61921;53.226;-1.296;2023-07-31T11:09:19;5;4;
73623;PMS5003;61921;53.226;-1.296;2023-07-31T11:11:44;4;4;
73623;PMS5003;61921;53.226;-1.296;2023-07-31T11:14:09;11;6;
73623;PMS5003;61921;53.226;-1.296;2023-07-31T11:16:34;5;5;
73623;PMS5003;61921;53.226;-1.296;2023-07-31T11:18:59;5;5;
73623;PMS5003;61921;53.226;-1.296;2023-07-31T11:21:24;7;6;
73623;PMS5003;61921;53.226;-1.296;2023-07-31T11:23:50;4;4;
73623;PMS5003;61921;53.226;-1.296;2023-07-31T11:26:15;6;4;
73623;PMS5003;61921;53.226;-1.296;2023-07-31T11:28:40;6;6;
73623;PMS5003;61921;53.226;-1.296;2023-07-31T11:31:05;7;6;
73623;PMS5003;61921;53.226;-1.296;2023-07-31T11:33:30;6;4;
73623;PMS5003;61921;53.226;-1.296;2023-07-31T11:35:55;6;6;
73623;PMS5003;61921;53.226;-1.296;2023-07-31T11:38:21;5;4;
73623;PMS5003;61921;53.226;-1.296;2023-07-31T11:40:46;5;5;
73623;PMS5003;61921;53.226;-1.296;2023-07-31T11:43:11;6;5;
73623;PMS5003;61921;53.226;-1.296;2023-07-31T11:45:35;4;4;
73623;PMS5003;61921;53.226;-1.296;2023-07-31T11:48:01;6;4;
73623;PMS5003;61921;53.226;-1.296;2023-07-31T11:50:26;5;4;
73623;PMS5003;61921;53.226;-1.296;2023-07-31T11:52:51;4;4;
73623;PMS5003;61921;53.226;-1.296;2023-07-31T11:55:16;6;4;
73623;PMS5003;61921;53.226;-1.296;2023-07-31T11:57:41;6;5;
73623;PMS5003;61921;53.226;-1.296;2023-07-31T12:00:07;4;4;
73623;PMS5003;61921;53.226;-1.296;2023-07-31T12:02:31;9;6;
73623;PMS5003;61921;53.226;-1.296;2023-07-31T12:04:57;8;6;
73623;PMS5003;61921;53.226;-1.296;2023-07-31T12:07:23;6;5;
73623;PMS5003;61921;53.226;-1.296;2023-07-31T12:09:52;4;4;
73623;PMS5003;61921;53.226;-1.296;2023-07-31T12:12:12;7;5;
73623;PMS5003;61921;53.226;-1.296;2023-07-31T12:14:37;7;6;
73623;PMS5003;61921;53.226;-1.296;2023-07-31T12:17:04;6;5;
73623;PMS5003;61921;53.226;-1.296;2023-07-31T12:19:27;8;7;
73623;PMS5003;61921;53.226;-1.296;2023-07-31T12:21:52;9;7;
73623;PMS5003;61921;53.226;-1.296;2023-07-31T12:24:18;6;5;
73623;PMS5003;61921;53.226;-1.296;2023-07-31T12:26:45;9;7;
73623;PMS5003;61921;53.226;-1.296;2023-07-31T12:29:08;11;7;
73623;PMS5003;61921;53.226;-1.296;2023-07-31T12:31:33;4;4;
73623;PMS5003;61921;53.226;-1.296;2023-07-31T12:33:58;5;5;
73623;PMS5003;61921;53.226;-1.296;2023-07-31T12:36:23;9;7;
73623;PMS5003;61921;53.226;-1.296;2023-07-31T12:38:49;13;10;
73623;PMS5003;61921;53.226;-1.296;2023-07-31T12:41:14;8;7;
73623;PMS5003;61921;53.226;-1.296;2023-07-31T12:43:39;5;5;
73623;PMS5003;61921;53.226;-1.296;2023-07-31T12:46:04;5;5;
73623;PMS5003;61921;53.226;-1.296;2023-07-31T12:48:29;7;7;
73623;PMS5003;61921;53.226;-1.296;2023-07-31T12:50:55;7;6;
73623;PMS5003;61921;53.226;-1.296;2023-07-31T12:53:20;7;6;
73623;PMS5003;61921;53.226;-1.296;2023-07-31T12:55:45;5;5;
73623;PMS5003;61921;53.226;-1.296;2023-07-31T12:58:10;6;6;
73623;PMS5003;61921;53.226;-1.296;2023-07-31T13:00:35;8;6;
73623;PMS5003;61921;53.226;-1.296;2023-07-31T13:03:00;5;5;
73623;PMS5003;61921;53.226;-1.296;2023-07-31T13:05:26;7;6;
73623;PMS5003;61921;53.226;-1.296;2023-07-31T13:07:50;4;4;
73623;PMS5003;61921;53.226;-1.296;2023-07-31T13:10:16;4;4;
73623;PMS5003;61921;53.226;-1.296;2023-07-31T13:12:41;7;7;
73623;PMS5003;61921;53.226;-1.296;2023-07-31T13:15:06;6;6;
73623;PMS5003;61921;53.226;-1.296;2023-07-31T13:17:31;7;7;
73623;PMS5003;61921;53.226;-1.296;2023-07-31T13:19:56;7;6;
73623;PMS5003;61921;53.226;-1.296;2023-07-31T13:22:22;4;4;
73623;PMS5003;61921;53.226;-1.296;2023-07-31T13:24:47;6;6;
73623;PMS5003;61921;53.226;-1.296;2023-07-31T13:27:12;9;5;
73623;PMS5003;61921;53.226;-1.296;2023-07-31T13:29:37;7;7;
73623;PMS5003;61921;53.226;-1.296;2023-07-31T13:32:02;12;11;
73623;PMS5003;61921;53.226;-1.296;2023-07-31T13:34:27;13;10;
73623;PMS5003;61921;53.226;-1.296;2023-07-31T13:36:53;7;6;
73623;PMS5003;61921;53.226;-1.296;2023-07-31T13:39:18;10;6;
73623;PMS5003;61921;53.226;-1.296;2023-07-31T13:41:43;7;7;
73623;PMS5003;61921;53.226;-1.296;2023-07-31T13:44:08;5;4;
73623;PMS5003;61921;53.226;-1.296;2023-07-31T13:46:33;6;5;
73623;PMS5003;61921;53.226;-1.296;2023-07-31T13:48:58;10;7;
73623;PMS5003;61921;53.226;-1.296;2023-07-31T13:51:23;7;5;
73623;PMS5003;61921;53.226;-1.296;2023-07-31T13:53:49;7;7;
73623;PMS5003;61921;53.226;-1.296;2023-07-31T13:56:14;7;7;
73623;PMS5003;61921;53.226;-1.296;2023-07-31T13:58:39;7;4;
73623;PMS5003;61921;53.226;-1.296;2023-07-31T14:01:04;4;4;
73623;PMS5003;61921;53.226;-1.296;2023-07-31T14:03:30;7;6;
73623;PMS5003;61921;53.226;-1.296;2023-07-31T14:05:54;4;4;
73623;PMS5003;61921;53.226;-1.296;2023-07-31T14:08:19;7;6;
73623;PMS5003;61921;53.226;-1.296;2023-07-31T14:10:44;9;7;
73623;PMS5003;61921;53.226;-1.296;2023-07-31T14:13:10;9;6;
73623;PMS5003;61921;53.226;-1.296;2023-07-31T14:15:35;5;5;
73623;PMS5003;61921;53.226;-1.296;2023-07-31T14:18:00;7;7;
73623;PMS5003;61921;53.226;-1.296;2023-07-31T14:20:25;6;5;
73623;PMS5003;61921;53.226;-1.296;2023-07-31T14:22:50;8;6;
73623;PMS5003;61921;53.226;-1.296;2023-07-31T14:25:15;6;4;
73623;PMS5003;61921;53.226;-1.296;2023-07-31T14:27:40;7;5;
73623;PMS5003;61921;53.226;-1.296;2023-07-31T14:30:06;7;5;
73623;PMS5003;61921;53.226;-1.296;2023-07-31T14:32:31;6;5;
73623;PMS5003;61921;53.226;-1.296;2023-07-31T14:34:56;6;6;
73623;PMS5003;61921;53.226;-1.296;2023-07-31T14:37:21;5;4;
73623;PMS5003;61921;53.226;-1.296;2023-07-31T14:39:46;5;5;
73623;PMS5003;61921;53.226;-1.296;2023-07-31T14:42:11;6;5;
73623;PMS5003;61921;53.226;-1.296;2023-07-31T14:44:36;4;3;
73623;PMS5003;61921;53.226;-1.296;2023-07-31T14:47:01;4;3;
73623;PMS5003;61921;53.226;-1.296;2023-07-31T14:49:27;4;4;
73623;PMS5003;61921;53.226;-1.296;2023-07-31T14:51:52;5;4;
73623;PMS5003;61921;53.226;-1.296;2023-07-31T14:54:17;6;5;
73623;PMS5003;61921;53.226;-1.296;2023-07-31T14:56:43;7;6;
73623;PMS5003;61921;53.226;-1.296;2023-07-31T14:59:07;4;4;
73623;PMS5003;61921;53.226;-1.296;2023-07-31T15:01:32;5;5;
73623;PMS5003;61921;53.226;-1.296;2023-07-31T15:03:58;6;6;
73623;PMS5003;61921;53.226;-1.296;2023-07-31T15:06:22;6;6;
73623;PMS5003;61921;53.226;-1.296;2023-07-31T15:08:48;5;5;
73623;PMS5003;61921;53.226;-1.296;2023-07-31T15:11:13;5;5;
73623;PMS5003;61921;53.226;-1.296;2023-07-31T15:13:38;3;3;
73623;PMS5003;61921;53.226;-1.296;2023-07-31T15:16:03;8;6;
73623;PMS5003;61921;53.226;-1.296;2023-07-31T15:18:28;4;4;
73623;PMS5003;61921;53.226;-1.296;2023-07-31T15:20:53;6;5;
73623;PMS5003;61921;53.226;-1.296;2023-07-31T15:23:19;5;5;
73623;PMS5003;61921;53.226;-1.296;2023-07-31T15:25:43;6;6;
73623;PMS5003;61921;53.226;-1.296;2023-07-31T15:28:08;6;6;
73623;PMS5003;61921;53.226;-1.296;2023-07-31T15:30:34;6;5;
73623;PMS5003;61921;53.226;-1.296;2023-07-31T15:32:59;3;3;
73623;PMS5003;61921;53.226;-1.296;2023-07-31T15:35:24;4;4;
73623;PMS5003;61921;53.226;-1.296;2023-07-31T15:37:49;4;4;
73623;PMS5003;61921;53.226;-1.296;2023-07-31T15:40:14;5;4;
73623;PMS5003;61921;53.226;-1.296;2023-07-31T15:42:39;6;5;
73623;PMS5003;61921;53.226;-1.296;2023-07-31T15:45:05;4;3;
73623;PMS5003;61921;53.226;-1.296;2023-07-31T15:47:30;5;3;
73623;PMS5003;61921;53.226;-1.296;2023-07-31T15:49:55;4;4;
73623;PMS5003;61921;53.226;-1.296;2023-07-31T15:52:20;4;4;
73623;PMS5003;61921;53.226;-1.296;2023-07-31T15:54:45;5;5;
73623;PMS5003;61921;53.226;-1.296;2023-07-31T15:57:10;7;5;
73623;PMS5003;61921;53.226;-1.296;2023-07-31T15:59:35;7;5;
73623;PMS5003;61921;53.226;-1.296;2023-07-31T16:02:00;7;5;
73623;PMS5003;61921;53.226;-1.296;2023-07-31T16:04:33;5;4;
73623;PMS5003;61921;53.226;-1.296;2023-07-31T16:07:02;4;4;
73623;PMS5003;61921;53.226;-1.296;2023-07-31T16:09:16;6;5;
73623;PMS5003;61921;53.226;-1.296;2023-07-31T16:11:41;3;3;
73623;PMS5003;61921;53.226;-1.296;2023-07-31T16:14:06;3;3;
73623;PMS5003;61921;53.226;-1.296;2023-07-31T16:16:31;3;3;
73623;PMS5003;61921;53.226;-1.296;2023-07-31T16:18:56;6;4;
73623;PMS5003;61921;53.226;-1.296;2023-07-31T16:21:21;4;4;
73623;PMS5003;61921;53.226;-1.296;2023-07-31T16:23:47;5;5;
73623;PMS5003;61921;53.226;-1.296;2023-07-31T16:26:12;5;5;
73623;PMS5003;61921;53.226;-1.296;2023-07-31T16:28:37;7;6;